sensor_id;sensor_type;location;lat;lon;timestamp;P1;durP1;ratioP1;P2;durP2;ratioP2
54430;SDS011;40342;52.998;5.862;2023-01-10T00:01:06;28.70;;;3.45;;
54430;SDS011;40342;52.998;5.862;2023-01-10T00:03:32;16.42;;;3.10;;
54430;SDS011;40342;52.998;5.862;2023-01-10T00:05:58;20.08;;;3.42;;
54430;SDS011;40342;52.998;5.862;2023-01-10T00:08:23;21.27;;;3.92;;
54430;SDS011;40342;52.998;5.862;2023-01-10T00:10:49;28.05;;;4.55;;
54430;SDS011;40342;52.998;5.862;2023-01-10T00:13:15;19.65;;;3.28;;
54430;SDS011;40342;52.998;5.862;2023-01-10T00:15:48;22.77;;;3.53;;
54430;SDS011;40342;52.998;5.862;2023-01-10T00:18:17;24.98;;;4.32;;
54430;SDS011;40342;52.998;5.862;2023-01-10T00:20:43;17.10;;;3.47;;
54430;SDS011;40342;52.998;5.862;2023-01-10T00:23:10;26.40;;;4.30;;
54430;SDS011;40342;52.998;5.862;2023-01-10T00:25:36;24.02;;;3.60;;
54430;SDS011;40342;52.998;5.862;2023-01-10T00:28:02;28.83;;;4.70;;
54430;SDS011;40342;52.998;5.862;2023-01-10T00:30:36;25.88;;;4.55;;
54430;SDS011;40342;52.998;5.862;2023-01-10T00:33:05;27.27;;;4.78;;
54430;SDS011;40342;52.998;5.862;2023-01-10T00:35:31;22.45;;;4.40;;
54430;SDS011;40342;52.998;5.862;2023-01-10T00:37:57;32.50;;;4.60;;
54430;SDS011;40342;52.998;5.862;2023-01-10T00:40:27;23.77;;;4.00;;
54430;SDS011;40342;52.998;5.862;2023-01-10T00:42:52;22.98;;;4.13;;
54430;SDS011;40342;52.998;5.862;2023-01-10T00:45:36;24.05;;;4.20;;
54430;SDS011;40342;52.998;5.862;2023-01-10T00:48:02;25.65;;;4.43;;
54430;SDS011;40342;52.998;5.862;2023-01-10T00:50:27;19.98;;;4.00;;
54430;SDS011;40342;52.998;5.862;2023-01-10T00:52:53;22.88;;;4.10;;
54430;SDS011;40342;52.998;5.862;2023-01-10T00:55:18;26.08;;;4.57;;
54430;SDS011;40342;52.998;5.862;2023-01-10T00:57:44;23.67;;;3.38;;
54430;SDS011;40342;52.998;5.862;2023-01-10T01:00:10;20.42;;;3.30;;
54430;SDS011;40342;52.998;5.862;2023-01-10T01:02:36;27.67;;;4.78;;
54430;SDS011;40342;52.998;5.862;2023-01-10T01:05:03;26.25;;;4.28;;
54430;SDS011;40342;52.998;5.862;2023-01-10T01:07:29;24.30;;;3.85;;
54430;SDS011;40342;52.998;5.862;2023-01-10T01:09:54;30.73;;;4.68;;
54430;SDS011;40342;52.998;5.862;2023-01-10T01:12:38;17.88;;;3.42;;
54430;SDS011;40342;52.998;5.862;2023-01-10T01:15:04;19.15;;;3.55;;
54430;SDS011;40342;52.998;5.862;2023-01-10T01:17:30;21.15;;;3.90;;
54430;SDS011;40342;52.998;5.862;2023-01-10T01:19:55;24.73;;;3.95;;
54430;SDS011;40342;52.998;5.862;2023-01-10T01:22:21;34.65;;;4.78;;
54430;SDS011;40342;52.998;5.862;2023-01-10T01:24:46;24.98;;;3.63;;
54430;SDS011;40342;52.998;5.862;2023-01-10T01:27:12;17.15;;;3.17;;
54430;SDS011;40342;52.998;5.862;2023-01-10T01:29:38;20.45;;;3.92;;
54430;SDS011;40342;52.998;5.862;2023-01-10T01:32:03;19.85;;;3.20;;
54430;SDS011;40342;52.998;5.862;2023-01-10T01:34:29;22.73;;;3.72;;
54430;SDS011;40342;52.998;5.862;2023-01-10T01:36:54;21.33;;;4.28;;
54430;SDS011;40342;52.998;5.862;2023-01-10T01:39:22;26.20;;;4.25;;
54430;SDS011;40342;52.998;5.862;2023-01-10T01:41:48;31.50;;;4.63;;
54430;SDS011;40342;52.998;5.862;2023-01-10T01:44:22;25.20;;;5.00;;
54430;SDS011;40342;52.998;5.862;2023-01-10T01:49:25;18.48;;;3.28;;
54430;SDS011;40342;52.998;5.862;2023-01-10T01:51:52;21.58;;;4.20;;
54430;SDS011;40342;52.998;5.862;2023-01-10T01:54:23;24.00;;;4.82;;
54430;SDS011;40342;52.998;5.862;2023-01-10T01:56:53;26.90;;;4.15;;
54430;SDS011;40342;52.998;5.862;2023-01-10T01:59:27;19.90;;;3.85;;
54430;SDS011;40342;52.998;5.862;2023-01-10T02:01:56;19.85;;;3.72;;
54430;SDS011;40342;52.998;5.862;2023-01-10T02:04:29;27.63;;;4.07;;
54430;SDS011;40342;52.998;5.862;2023-01-10T02:07:02;15.88;;;3.95;;
54430;SDS011;40342;52.998;5.862;2023-01-10T02:09:31;23.45;;;3.78;;
54430;SDS011;40342;52.998;5.862;2023-01-10T02:12:07;21.83;;;3.83;;
54430;SDS011;40342;52.998;5.862;2023-01-10T02:14:34;17.60;;;3.95;;
54430;SDS011;40342;52.998;5.862;2023-01-10T02:17:01;22.17;;;4.30;;
54430;SDS011;40342;52.998;5.862;2023-01-10T02:19:35;23.42;;;3.72;;
54430;SDS011;40342;52.998;5.862;2023-01-10T02:24:48;17.17;;;3.15;;
54430;SDS011;40342;52.998;5.862;2023-01-10T02:30:29;25.52;;;3.88;;
54430;SDS011;40342;52.998;5.862;2023-01-10T02:39:29;19.20;;;3.85;;
54430;SDS011;40342;52.998;5.862;2023-01-10T02:41:44;25.55;;;3.42;;
54430;SDS011;40342;52.998;5.862;2023-01-10T02:44:13;23.67;;;4.20;;
54430;SDS011;40342;52.998;5.862;2023-01-10T02:46:44;21.15;;;3.88;;
54430;SDS011;40342;52.998;5.862;2023-01-10T02:49:10;22.15;;;3.95;;
54430;SDS011;40342;52.998;5.862;2023-01-10T02:51:36;22.55;;;4.85;;
54430;SDS011;40342;52.998;5.862;2023-01-10T02:56:45;27.05;;;5.22;;
54430;SDS011;40342;52.998;5.862;2023-01-10T02:59:29;19.42;;;4.20;;
54430;SDS011;40342;52.998;5.862;2023-01-10T03:09:53;28.83;;;4.75;;
54430;SDS011;40342;52.998;5.862;2023-01-10T03:12:24;25.50;;;4.45;;
54430;SDS011;40342;52.998;5.862;2023-01-10T03:14:56;33.00;;;4.40;;
54430;SDS011;40342;52.998;5.862;2023-01-10T03:17:23;20.15;;;3.92;;
54430;SDS011;40342;52.998;5.862;2023-01-10T03:19:52;25.92;;;4.97;;
54430;SDS011;40342;52.998;5.862;2023-01-10T03:22:20;26.33;;;4.80;;
54430;SDS011;40342;52.998;5.862;2023-01-10T03:24:48;20.95;;;4.30;;
54430;SDS011;40342;52.998;5.862;2023-01-10T03:27:19;31.80;;;4.90;;
54430;SDS011;40342;52.998;5.862;2023-01-10T03:29:55;26.30;;;4.45;;
54430;SDS011;40342;52.998;5.862;2023-01-10T03:32:23;24.63;;;4.38;;
54430;SDS011;40342;52.998;5.862;2023-01-10T03:34:51;20.77;;;3.90;;
54430;SDS011;40342;52.998;5.862;2023-01-10T03:37:24;26.88;;;4.53;;
54430;SDS011;40342;52.998;5.862;2023-01-10T03:40:28;20.40;;;4.53;;
54430;SDS011;40342;52.998;5.862;2023-01-10T03:43:02;26.23;;;4.25;;
54430;SDS011;40342;52.998;5.862;2023-01-10T03:46:29;22.52;;;4.25;;
54430;SDS011;40342;52.998;5.862;2023-01-10T03:49:02;30.42;;;4.90;;
54430;SDS011;40342;52.998;5.862;2023-01-10T03:51:30;26.88;;;4.97;;
54430;SDS011;40342;52.998;5.862;2023-01-10T03:53:58;28.58;;;4.55;;
54430;SDS011;40342;52.998;5.862;2023-01-10T03:56:25;28.17;;;4.95;;
54430;SDS011;40342;52.998;5.862;2023-01-10T03:58:50;28.90;;;4.88;;
54430;SDS011;40342;52.998;5.862;2023-01-10T04:01:16;27.80;;;4.50;;
54430;SDS011;40342;52.998;5.862;2023-01-10T04:03:42;28.77;;;4.60;;
54430;SDS011;40342;52.998;5.862;2023-01-10T04:06:08;25.50;;;4.82;;
54430;SDS011;40342;52.998;5.862;2023-01-10T04:08:33;25.48;;;5.15;;
54430;SDS011;40342;52.998;5.862;2023-01-10T04:10:59;25.38;;;4.93;;
54430;SDS011;40342;52.998;5.862;2023-01-10T04:13:24;27.77;;;4.78;;
54430;SDS011;40342;52.998;5.862;2023-01-10T04:15:50;22.45;;;5.43;;
54430;SDS011;40342;52.998;5.862;2023-01-10T04:18:15;21.25;;;4.60;;
54430;SDS011;40342;52.998;5.862;2023-01-10T04:20:43;25.23;;;4.45;;
54430;SDS011;40342;52.998;5.862;2023-01-10T04:23:09;26.80;;;5.32;;
54430;SDS011;40342;52.998;5.862;2023-01-10T04:25:34;33.58;;;5.65;;
54430;SDS011;40342;52.998;5.862;2023-01-10T04:28:00;29.00;;;4.57;;
54430;SDS011;40342;52.998;5.862;2023-01-10T04:30:26;29.00;;;5.00;;
54430;SDS011;40342;52.998;5.862;2023-01-10T04:32:51;22.52;;;4.25;;
54430;SDS011;40342;52.998;5.862;2023-01-10T04:35:17;25.45;;;4.15;;
54430;SDS011;40342;52.998;5.862;2023-01-10T04:37:42;27.70;;;4.43;;
54430;SDS011;40342;52.998;5.862;2023-01-10T04:40:08;17.83;;;4.18;;
54430;SDS011;40342;52.998;5.862;2023-01-10T04:42:35;22.42;;;4.10;;
54430;SDS011;40342;52.998;5.862;2023-01-10T04:45:00;24.42;;;4.88;;
54430;SDS011;40342;52.998;5.862;2023-01-10T04:47:26;30.13;;;5.05;;
54430;SDS011;40342;52.998;5.862;2023-01-10T04:49:52;28.52;;;4.85;;
54430;SDS011;40342;52.998;5.862;2023-01-10T04:52:17;21.60;;;4.07;;
54430;SDS011;40342;52.998;5.862;2023-01-10T04:54:43;15.55;;;3.80;;
54430;SDS011;40342;52.998;5.862;2023-01-10T04:57:08;12.65;;;2.30;;
54430;SDS011;40342;52.998;5.862;2023-01-10T04:59:34;7.75;;;1.95;;
54430;SDS011;40342;52.998;5.862;2023-01-10T05:01:59;10.05;;;1.80;;
54430;SDS011;40342;52.998;5.862;2023-01-10T05:04:25;4.63;;;1.27;;
54430;SDS011;40342;52.998;5.862;2023-01-10T05:06:51;7.30;;;2.22;;
54430;SDS011;40342;52.998;5.862;2023-01-10T05:09:16;7.50;;;1.63;;
54430;SDS011;40342;52.998;5.862;2023-01-10T05:11:42;8.07;;;1.90;;
54430;SDS011;40342;52.998;5.862;2023-01-10T05:14:07;12.10;;;2.50;;
54430;SDS011;40342;52.998;5.862;2023-01-10T05:16:33;13.60;;;2.35;;
54430;SDS011;40342;52.998;5.862;2023-01-10T05:19:00;15.90;;;3.17;;
54430;SDS011;40342;52.998;5.862;2023-01-10T05:21:26;17.65;;;3.50;;
54430;SDS011;40342;52.998;5.862;2023-01-10T05:23:51;21.92;;;4.00;;
54430;SDS011;40342;52.998;5.862;2023-01-10T05:26:20;20.52;;;3.85;;
54430;SDS011;40342;52.998;5.862;2023-01-10T05:28:47;21.95;;;4.75;;
54430;SDS011;40342;52.998;5.862;2023-01-10T05:31:14;23.40;;;4.80;;
54430;SDS011;40342;52.998;5.862;2023-01-10T05:33:45;29.52;;;4.53;;
54430;SDS011;40342;52.998;5.862;2023-01-10T05:36:12;26.13;;;4.95;;
54430;SDS011;40342;52.998;5.862;2023-01-10T05:38:38;24.80;;;4.13;;
54430;SDS011;40342;52.998;5.862;2023-01-10T05:41:03;22.50;;;3.95;;
54430;SDS011;40342;52.998;5.862;2023-01-10T05:43:29;28.45;;;5.05;;
54430;SDS011;40342;52.998;5.862;2023-01-10T05:45:55;27.15;;;4.68;;
54430;SDS011;40342;52.998;5.862;2023-01-10T05:48:20;25.63;;;4.93;;
54430;SDS011;40342;52.998;5.862;2023-01-10T05:50:47;22.10;;;4.38;;
54430;SDS011;40342;52.998;5.862;2023-01-10T05:53:14;34.53;;;5.32;;
54430;SDS011;40342;52.998;5.862;2023-01-10T05:55:40;28.63;;;4.82;;
54430;SDS011;40342;52.998;5.862;2023-01-10T05:58:05;33.58;;;5.22;;
54430;SDS011;40342;52.998;5.862;2023-01-10T06:00:31;31.38;;;4.63;;
54430;SDS011;40342;52.998;5.862;2023-01-10T06:02:57;25.17;;;5.05;;
54430;SDS011;40342;52.998;5.862;2023-01-10T06:05:25;22.60;;;4.20;;
54430;SDS011;40342;52.998;5.862;2023-01-10T06:07:51;30.98;;;5.15;;
54430;SDS011;40342;52.998;5.862;2023-01-10T06:10:16;28.13;;;5.78;;
54430;SDS011;40342;52.998;5.862;2023-01-10T06:12:42;29.88;;;5.45;;
54430;SDS011;40342;52.998;5.862;2023-01-10T06:15:08;30.48;;;4.75;;
54430;SDS011;40342;52.998;5.862;2023-01-10T06:17:34;29.27;;;5.07;;
54430;SDS011;40342;52.998;5.862;2023-01-10T06:20:00;32.97;;;6.25;;
54430;SDS011;40342;52.998;5.862;2023-01-10T06:22:26;26.70;;;4.72;;
54430;SDS011;40342;52.998;5.862;2023-01-10T06:24:52;29.10;;;5.40;;
54430;SDS011;40342;52.998;5.862;2023-01-10T06:27:19;34.53;;;5.40;;
54430;SDS011;40342;52.998;5.862;2023-01-10T06:29:44;30.67;;;4.95;;
54430;SDS011;40342;52.998;5.862;2023-01-10T06:32:10;26.63;;;4.95;;
54430;SDS011;40342;52.998;5.862;2023-01-10T06:34:35;33.60;;;5.32;;
54430;SDS011;40342;52.998;5.862;2023-01-10T06:37:01;25.05;;;4.65;;
54430;SDS011;40342;52.998;5.862;2023-01-10T06:39:27;34.15;;;5.25;;
54430;SDS011;40342;52.998;5.862;2023-01-10T06:41:52;31.92;;;5.97;;
54430;SDS011;40342;52.998;5.862;2023-01-10T06:44:18;31.92;;;5.72;;
54430;SDS011;40342;52.998;5.862;2023-01-10T06:46:43;31.85;;;4.90;;
54430;SDS011;40342;52.998;5.862;2023-01-10T06:49:09;26.58;;;5.47;;
54430;SDS011;40342;52.998;5.862;2023-01-10T06:51:34;39.58;;;5.63;;
54430;SDS011;40342;52.998;5.862;2023-01-10T06:54:00;36.75;;;6.28;;
54430;SDS011;40342;52.998;5.862;2023-01-10T06:56:25;32.22;;;5.53;;
54430;SDS011;40342;52.998;5.862;2023-01-10T06:58:51;26.90;;;5.68;;
54430;SDS011;40342;52.998;5.862;2023-01-10T07:01:18;30.17;;;6.15;;
54430;SDS011;40342;52.998;5.862;2023-01-10T07:03:44;30.05;;;5.75;;
54430;SDS011;40342;52.998;5.862;2023-01-10T07:06:11;32.47;;;5.82;;
54430;SDS011;40342;52.998;5.862;2023-01-10T07:08:41;37.67;;;6.30;;
54430;SDS011;40342;52.998;5.862;2023-01-10T07:11:09;43.15;;;6.95;;
54430;SDS011;40342;52.998;5.862;2023-01-10T07:13:36;25.40;;;4.93;;
54430;SDS011;40342;52.998;5.862;2023-01-10T07:16:03;31.85;;;5.30;;
54430;SDS011;40342;52.998;5.862;2023-01-10T07:18:30;34.03;;;5.45;;
54430;SDS011;40342;52.998;5.862;2023-01-10T07:20:57;37.17;;;6.18;;
54430;SDS011;40342;52.998;5.862;2023-01-10T07:23:23;33.83;;;5.03;;
54430;SDS011;40342;52.998;5.862;2023-01-10T07:25:48;28.08;;;4.85;;
54430;SDS011;40342;52.998;5.862;2023-01-10T07:28:14;24.55;;;4.90;;
54430;SDS011;40342;52.998;5.862;2023-01-10T07:30:40;38.35;;;5.47;;
54430;SDS011;40342;52.998;5.862;2023-01-10T07:33:05;29.98;;;4.82;;
54430;SDS011;40342;52.998;5.862;2023-01-10T07:35:31;35.33;;;5.78;;
54430;SDS011;40342;52.998;5.862;2023-01-10T07:37:58;28.35;;;5.05;;
54430;SDS011;40342;52.998;5.862;2023-01-10T07:40:24;27.75;;;4.97;;
54430;SDS011;40342;52.998;5.862;2023-01-10T07:42:55;25.95;;;4.88;;
54430;SDS011;40342;52.998;5.862;2023-01-10T07:45:21;27.65;;;4.90;;
54430;SDS011;40342;52.998;5.862;2023-01-10T07:47:47;29.52;;;5.20;;
54430;SDS011;40342;52.998;5.862;2023-01-10T07:50:12;22.10;;;4.53;;
54430;SDS011;40342;52.998;5.862;2023-01-10T07:52:38;24.13;;;5.32;;
54430;SDS011;40342;52.998;5.862;2023-01-10T07:55:04;32.63;;;5.30;;
54430;SDS011;40342;52.998;5.862;2023-01-10T07:57:30;31.52;;;4.97;;
54430;SDS011;40342;52.998;5.862;2023-01-10T07:59:55;27.73;;;5.25;;
54430;SDS011;40342;52.998;5.862;2023-01-10T08:02:21;38.85;;;6.35;;
54430;SDS011;40342;52.998;5.862;2023-01-10T08:04:47;36.15;;;5.22;;
54430;SDS011;40342;52.998;5.862;2023-01-10T08:07:12;29.02;;;5.03;;
54430;SDS011;40342;52.998;5.862;2023-01-10T08:09:38;24.13;;;4.63;;
54430;SDS011;40342;52.998;5.862;2023-01-10T08:12:03;28.40;;;5.50;;
54430;SDS011;40342;52.998;5.862;2023-01-10T08:14:29;29.73;;;5.93;;
54430;SDS011;40342;52.998;5.862;2023-01-10T08:16:54;29.92;;;5.90;;
54430;SDS011;40342;52.998;5.862;2023-01-10T08:19:20;38.72;;;5.85;;
54430;SDS011;40342;52.998;5.862;2023-01-10T08:21:45;35.08;;;6.00;;
54430;SDS011;40342;52.998;5.862;2023-01-10T08:24:11;34.85;;;6.30;;
54430;SDS011;40342;52.998;5.862;2023-01-10T08:26:36;33.25;;;5.20;;
54430;SDS011;40342;52.998;5.862;2023-01-10T08:29:02;27.60;;;5.28;;
54430;SDS011;40342;52.998;5.862;2023-01-10T08:31:28;21.08;;;4.65;;
54430;SDS011;40342;52.998;5.862;2023-01-10T08:33:53;26.10;;;4.90;;
54430;SDS011;40342;52.998;5.862;2023-01-10T08:36:20;24.92;;;4.72;;
54430;SDS011;40342;52.998;5.862;2023-01-10T08:38:46;22.48;;;4.22;;
54430;SDS011;40342;52.998;5.862;2023-01-10T08:41:12;28.20;;;5.40;;
54430;SDS011;40342;52.998;5.862;2023-01-10T08:43:38;26.52;;;4.70;;
54430;SDS011;40342;52.998;5.862;2023-01-10T08:46:07;25.05;;;4.20;;
54430;SDS011;40342;52.998;5.862;2023-01-10T08:48:32;26.73;;;4.88;;
54430;SDS011;40342;52.998;5.862;2023-01-10T08:51:03;26.30;;;4.95;;
54430;SDS011;40342;52.998;5.862;2023-01-10T08:53:30;19.77;;;4.35;;
54430;SDS011;40342;52.998;5.862;2023-01-10T08:55:56;29.85;;;4.85;;
54430;SDS011;40342;52.998;5.862;2023-01-10T08:58:21;25.27;;;4.35;;
54430;SDS011;40342;52.998;5.862;2023-01-10T09:00:47;37.65;;;6.40;;
54430;SDS011;40342;52.998;5.862;2023-01-10T09:03:13;22.88;;;4.63;;
54430;SDS011;40342;52.998;5.862;2023-01-10T09:05:39;23.83;;;4.70;;
54430;SDS011;40342;52.998;5.862;2023-01-10T09:08:05;23.67;;;4.88;;
54430;SDS011;40342;52.998;5.862;2023-01-10T09:10:30;21.92;;;4.18;;
54430;SDS011;40342;52.998;5.862;2023-01-10T09:12:56;24.02;;;4.03;;
54430;SDS011;40342;52.998;5.862;2023-01-10T09:15:26;21.95;;;4.45;;
54430;SDS011;40342;52.998;5.862;2023-01-10T09:18:00;25.20;;;4.45;;
54430;SDS011;40342;52.998;5.862;2023-01-10T09:20:29;24.23;;;4.88;;
54430;SDS011;40342;52.998;5.862;2023-01-10T09:22:55;31.58;;;4.63;;
54430;SDS011;40342;52.998;5.862;2023-01-10T09:25:22;29.65;;;5.07;;
54430;SDS011;40342;52.998;5.862;2023-01-10T09:27:56;31.02;;;5.03;;
54430;SDS011;40342;52.998;5.862;2023-01-10T09:30:25;27.35;;;6.15;;
54430;SDS011;40342;52.998;5.862;2023-01-10T09:32:52;31.38;;;5.72;;
54430;SDS011;40342;52.998;5.862;2023-01-10T09:35:19;31.13;;;5.25;;
54430;SDS011;40342;52.998;5.862;2023-01-10T09:37:45;28.75;;;5.63;;
54430;SDS011;40342;52.998;5.862;2023-01-10T09:40:14;27.20;;;4.75;;
54430;SDS011;40342;52.998;5.862;2023-01-10T09:43:05;30.75;;;6.20;;
54430;SDS011;40342;52.998;5.862;2023-01-10T09:45:40;27.73;;;5.28;;
54430;SDS011;40342;52.998;5.862;2023-01-10T09:48:16;26.38;;;4.30;;
54430;SDS011;40342;52.998;5.862;2023-01-10T09:53:27;32.75;;;5.38;;
54430;SDS011;40342;52.998;5.862;2023-01-10T09:55:56;28.17;;;5.60;;
54430;SDS011;40342;52.998;5.862;2023-01-10T09:58:25;33.80;;;4.78;;
54430;SDS011;40342;52.998;5.862;2023-01-10T10:06:26;28.92;;;4.72;;
54430;SDS011;40342;52.998;5.862;2023-01-10T10:08:52;34.55;;;5.25;;
54430;SDS011;40342;52.998;5.862;2023-01-10T10:16:48;32.55;;;5.82;;
54430;SDS011;40342;52.998;5.862;2023-01-10T10:38:13;32.20;;;6.82;;
54430;SDS011;40342;52.998;5.862;2023-01-10T10:56:27;32.08;;;6.60;;
54430;SDS011;40342;52.998;5.862;2023-01-10T11:03:25;34.35;;;6.25;;
54430;SDS011;40342;52.998;5.862;2023-01-10T11:06:02;28.00;;;6.82;;
54430;SDS011;40342;52.998;5.862;2023-01-10T11:08:30;34.60;;;6.63;;
54430;SDS011;40342;52.998;5.862;2023-01-10T11:11:01;39.05;;;6.50;;
54430;SDS011;40342;52.998;5.862;2023-01-10T11:16:21;31.63;;;7.18;;
54430;SDS011;40342;52.998;5.862;2023-01-10T11:19:07;32.17;;;6.50;;
54430;SDS011;40342;52.998;5.862;2023-01-10T11:21:42;34.92;;;7.68;;
54430;SDS011;40342;52.998;5.862;2023-01-10T11:24:20;41.45;;;7.15;;
54430;SDS011;40342;52.998;5.862;2023-01-10T11:26:49;33.03;;;7.03;;
54430;SDS011;40342;52.998;5.862;2023-01-10T11:29:16;35.00;;;7.55;;
54430;SDS011;40342;52.998;5.862;2023-01-10T11:31:44;33.10;;;6.93;;
54430;SDS011;40342;52.998;5.862;2023-01-10T11:34:28;35.08;;;7.30;;
54430;SDS011;40342;52.998;5.862;2023-01-10T11:37:15;35.67;;;6.85;;
54430;SDS011;40342;52.998;5.862;2023-01-10T11:39:42;29.92;;;5.78;;
54430;SDS011;40342;52.998;5.862;2023-01-10T11:42:25;32.55;;;6.63;;
54430;SDS011;40342;52.998;5.862;2023-01-10T11:44:54;36.17;;;7.95;;
54430;SDS011;40342;52.998;5.862;2023-01-10T11:47:38;35.33;;;7.70;;
54430;SDS011;40342;52.998;5.862;2023-01-10T11:50:07;34.45;;;7.10;;
54430;SDS011;40342;52.998;5.862;2023-01-10T11:52:34;39.53;;;7.35;;
54430;SDS011;40342;52.998;5.862;2023-01-10T11:55:01;29.98;;;7.68;;
54430;SDS011;40342;52.998;5.862;2023-01-10T11:57:31;31.67;;;7.15;;
54430;SDS011;40342;52.998;5.862;2023-01-10T11:59:58;30.95;;;7.30;;
54430;SDS011;40342;52.998;5.862;2023-01-10T12:02:34;36.92;;;8.27;;
54430;SDS011;40342;52.998;5.862;2023-01-10T12:05:08;37.30;;;7.63;;
54430;SDS011;40342;52.998;5.862;2023-01-10T12:07:53;35.50;;;8.05;;
54430;SDS011;40342;52.998;5.862;2023-01-10T12:10:20;30.23;;;7.38;;
54430;SDS011;40342;52.998;5.862;2023-01-10T12:12:57;33.90;;;8.98;;
54430;SDS011;40342;52.998;5.862;2023-01-10T12:15:28;33.00;;;7.38;;
54430;SDS011;40342;52.998;5.862;2023-01-10T12:17:56;34.33;;;7.50;;
54430;SDS011;40342;52.998;5.862;2023-01-10T12:20:28;39.55;;;7.72;;
54430;SDS011;40342;52.998;5.862;2023-01-10T12:22:59;35.85;;;8.35;;
54430;SDS011;40342;52.998;5.862;2023-01-10T12:25:32;29.80;;;7.85;;
54430;SDS011;40342;52.998;5.862;2023-01-10T12:28:00;29.70;;;7.38;;
54430;SDS011;40342;52.998;5.862;2023-01-10T12:30:33;30.70;;;7.78;;
54430;SDS011;40342;52.998;5.862;2023-01-10T12:33:25;34.30;;;8.63;;
54430;SDS011;40342;52.998;5.862;2023-01-10T12:35:57;32.85;;;7.47;;
54430;SDS011;40342;52.998;5.862;2023-01-10T12:38:37;26.45;;;6.70;;
54430;SDS011;40342;52.998;5.862;2023-01-10T12:41:34;29.55;;;7.68;;
54430;SDS011;40342;52.998;5.862;2023-01-10T12:44:36;33.88;;;7.88;;
54430;SDS011;40342;52.998;5.862;2023-01-10T12:58:40;31.58;;;6.57;;
54430;SDS011;40342;52.998;5.862;2023-01-10T13:01:31;24.17;;;6.07;;
54430;SDS011;40342;52.998;5.862;2023-01-10T13:04:02;35.25;;;6.13;;
54430;SDS011;40342;52.998;5.862;2023-01-10T13:06:31;30.25;;;6.72;;
54430;SDS011;40342;52.998;5.862;2023-01-10T13:08:59;29.85;;;6.15;;
54430;SDS011;40342;52.998;5.862;2023-01-10T13:11:34;28.70;;;5.65;;
54430;SDS011;40342;52.998;5.862;2023-01-10T13:14:06;29.70;;;6.13;;
54430;SDS011;40342;52.998;5.862;2023-01-10T13:19:05;30.50;;;6.13;;
54430;SDS011;40342;52.998;5.862;2023-01-10T13:21:47;29.13;;;6.35;;
54430;SDS011;40342;52.998;5.862;2023-01-10T13:26:52;31.95;;;6.05;;
54430;SDS011;40342;52.998;5.862;2023-01-10T13:32:19;28.33;;;5.68;;
54430;SDS011;40342;52.998;5.862;2023-01-10T13:34:50;36.58;;;6.30;;
54430;SDS011;40342;52.998;5.862;2023-01-10T13:37:21;28.58;;;6.75;;
54430;SDS011;40342;52.998;5.862;2023-01-10T13:39:57;27.92;;;5.93;;
54430;SDS011;40342;52.998;5.862;2023-01-10T13:45:17;31.23;;;6.00;;
54430;SDS011;40342;52.998;5.862;2023-01-10T13:55:27;27.60;;;5.40;;
54430;SDS011;40342;52.998;5.862;2023-01-10T13:57:59;26.35;;;5.15;;
54430;SDS011;40342;52.998;5.862;2023-01-10T14:04:01;28.60;;;6.03;;
54430;SDS011;40342;52.998;5.862;2023-01-10T14:06:02;30.65;;;6.03;;
54430;SDS011;40342;52.998;5.862;2023-01-10T14:08:36;31.63;;;5.80;;
54430;SDS011;40342;52.998;5.862;2023-01-10T14:11:04;34.67;;;6.05;;
54430;SDS011;40342;52.998;5.862;2023-01-10T14:13:31;30.63;;;5.95;;
54430;SDS011;40342;52.998;5.862;2023-01-10T14:15:57;23.48;;;5.00;;
54430;SDS011;40342;52.998;5.862;2023-01-10T14:18:24;23.35;;;4.88;;
54430;SDS011;40342;52.998;5.862;2023-01-10T14:20:57;29.73;;;6.22;;
54430;SDS011;40342;52.998;5.862;2023-01-10T14:23:28;27.20;;;6.10;;
54430;SDS011;40342;52.998;5.862;2023-01-10T14:26:31;24.25;;;6.80;;
54430;SDS011;40342;52.998;5.862;2023-01-10T14:29:09;28.95;;;7.22;;
54430;SDS011;40342;52.998;5.862;2023-01-10T14:31:46;31.98;;;5.95;;
54430;SDS011;40342;52.998;5.862;2023-01-10T14:34:18;30.30;;;6.90;;
54430;SDS011;40342;52.998;5.862;2023-01-10T14:37:00;31.70;;;7.05;;
54430;SDS011;40342;52.998;5.862;2023-01-10T14:39:43;26.70;;;5.68;;
54430;SDS011;40342;52.998;5.862;2023-01-10T14:42:11;34.45;;;6.38;;
54430;SDS011;40342;52.998;5.862;2023-01-10T14:44:46;33.17;;;6.22;;
54430;SDS011;40342;52.998;5.862;2023-01-10T14:49:56;24.10;;;4.65;;
54430;SDS011;40342;52.998;5.862;2023-01-10T14:52:24;29.58;;;5.47;;
54430;SDS011;40342;52.998;5.862;2023-01-10T14:54:53;24.95;;;6.15;;
54430;SDS011;40342;52.998;5.862;2023-01-10T14:57:34;27.90;;;5.47;;
54430;SDS011;40342;52.998;5.862;2023-01-10T15:00:23;28.27;;;5.20;;
54430;SDS011;40342;52.998;5.862;2023-01-10T15:02:49;20.73;;;5.80;;
54430;SDS011;40342;52.998;5.862;2023-01-10T15:05:20;26.38;;;5.68;;
54430;SDS011;40342;52.998;5.862;2023-01-10T15:07:50;23.98;;;5.53;;
54430;SDS011;40342;52.998;5.862;2023-01-10T15:10:24;16.92;;;4.00;;
54430;SDS011;40342;52.998;5.862;2023-01-10T15:12:53;27.13;;;5.25;;
54430;SDS011;40342;52.998;5.862;2023-01-10T15:15:26;26.58;;;4.78;;
54430;SDS011;40342;52.998;5.862;2023-01-10T15:17:58;27.20;;;4.78;;
54430;SDS011;40342;52.998;5.862;2023-01-10T15:20:26;27.63;;;5.10;;
54430;SDS011;40342;52.998;5.862;2023-01-10T15:22:57;31.60;;;5.75;;
54430;SDS011;40342;52.998;5.862;2023-01-10T15:25:37;32.95;;;6.82;;
54430;SDS011;40342;52.998;5.862;2023-01-10T15:28:03;25.33;;;4.63;;
54430;SDS011;40342;52.998;5.862;2023-01-10T15:30:37;23.65;;;4.68;;
54430;SDS011;40342;52.998;5.862;2023-01-10T15:33:11;27.80;;;5.97;;
54430;SDS011;40342;52.998;5.862;2023-01-10T15:35:39;30.40;;;5.72;;
54430;SDS011;40342;52.998;5.862;2023-01-10T15:38:10;26.13;;;5.28;;
54430;SDS011;40342;52.998;5.862;2023-01-10T15:40:45;25.20;;;5.13;;
54430;SDS011;40342;52.998;5.862;2023-01-10T15:43:25;28.00;;;5.15;;
54430;SDS011;40342;52.998;5.862;2023-01-10T15:45:53;23.17;;;5.25;;
54430;SDS011;40342;52.998;5.862;2023-01-10T15:48:24;19.55;;;4.82;;
54430;SDS011;40342;52.998;5.862;2023-01-10T15:50:57;31.73;;;5.90;;
54430;SDS011;40342;52.998;5.862;2023-01-10T15:56:37;26.50;;;5.57;;
54430;SDS011;40342;52.998;5.862;2023-01-10T15:59:17;25.90;;;5.70;;
54430;SDS011;40342;52.998;5.862;2023-01-10T16:01:53;30.75;;;5.65;;
54430;SDS011;40342;52.998;5.862;2023-01-10T16:04:23;24.05;;;6.03;;
54430;SDS011;40342;52.998;5.862;2023-01-10T16:06:50;23.48;;;5.38;;
54430;SDS011;40342;52.998;5.862;2023-01-10T16:09:19;26.48;;;5.25;;
54430;SDS011;40342;52.998;5.862;2023-01-10T16:11:49;22.25;;;4.75;;
54430;SDS011;40342;52.998;5.862;2023-01-10T16:14:34;24.15;;;5.07;;
54430;SDS011;40342;52.998;5.862;2023-01-10T16:17:00;23.70;;;5.93;;
54430;SDS011;40342;52.998;5.862;2023-01-10T16:19:27;17.85;;;4.50;;
54430;SDS011;40342;52.998;5.862;2023-01-10T16:21:53;25.50;;;5.38;;
54430;SDS011;40342;52.998;5.862;2023-01-10T16:24:24;24.67;;;4.85;;
54430;SDS011;40342;52.998;5.862;2023-01-10T16:26:52;21.80;;;5.38;;
54430;SDS011;40342;52.998;5.862;2023-01-10T16:29:20;19.80;;;4.97;;
54430;SDS011;40342;52.998;5.862;2023-01-10T16:31:49;27.90;;;5.47;;
54430;SDS011;40342;52.998;5.862;2023-01-10T16:34:17;23.10;;;4.80;;
54430;SDS011;40342;52.998;5.862;2023-01-10T16:36:43;20.83;;;4.35;;
54430;SDS011;40342;52.998;5.862;2023-01-10T16:39:16;19.83;;;4.78;;
54430;SDS011;40342;52.998;5.862;2023-01-10T16:41:44;24.38;;;8.05;;
54430;SDS011;40342;52.998;5.862;2023-01-10T16:44:29;32.22;;;12.13;;
54430;SDS011;40342;52.998;5.862;2023-01-10T16:46:55;21.40;;;7.10;;
54430;SDS011;40342;52.998;5.862;2023-01-10T16:49:21;26.02;;;5.57;;